sensor_id;sensor_type;location;lat;lon;timestamp;pressure;altitude;pressure_sealevel;temperature;humidity
28167;BME280;15455;53.376;-6.262;2023-02-18T00:00:45;101398.84;;;10.54;100.00
28167;BME280;15455;53.376;-6.262;2023-02-18T00:03:30;101400.56;;;10.55;100.00
28167;BME280;15455;53.376;-6.262;2023-02-18T00:06:27;101371.84;;;10.54;100.00
28167;BME280;15455;53.376;-6.262;2023-02-18T00:09:13;101399.69;;;10.53;100.00
28167;BME280;15455;53.376;-6.262;2023-02-18T00:11:59;101404.00;;;10.53;100.00
28167;BME280;15455;53.376;-6.262;2023-02-18T00:14:45;101397.06;;;10.52;100.00
28167;BME280;15455;53.376;-6.262;2023-02-18T00:17:30;101399.66;;;10.49;100.00
28167;BME280;15455;53.376;-6.262;2023-02-18T00:20:15;101393.50;;;10.43;100.00
28167;BME280;15455;53.376;-6.262;2023-02-18T00:23:02;101407.38;;;10.38;100.00
28167;BME280;15455;53.376;-6.262;2023-02-18T00:25:48;101391.63;;;10.32;100.00
28167;BME280;15455;53.376;-6.262;2023-02-18T00:28:34;101393.34;;;10.31;100.00
28167;BME280;15455;53.376;-6.262;2023-02-18T00:31:23;101396.84;;;10.32;100.00
28167;BME280;15455;53.376;-6.262;2023-02-18T00:34:11;101392.56;;;10.37;100.00
28167;BME280;15455;53.376;-6.262;2023-02-18T00:36:57;101383.00;;;10.36;100.00
28167;BME280;15455;53.376;-6.262;2023-02-18T00:39:42;101383.81;;;10.30;100.00
28167;BME280;15455;53.376;-6.262;2023-02-18T00:42:28;101388.13;;;10.28;100.00
28167;BME280;15455;53.376;-6.262;2023-02-18T00:45:14;101388.09;;;10.26;100.00
28167;BME280;15455;53.376;-6.262;2023-02-18T00:47:59;101395.88;;;10.20;100.00
28167;BME280;15455;53.376;-6.262;2023-02-18T00:50:45;101413.19;;;10.14;100.00
28167;BME280;15455;53.376;-6.262;2023-02-18T00:53:32;101389.72;;;10.14;100.00
28167;BME280;15455;53.376;-6.262;2023-02-18T00:56:17;101373.16;;;10.08;100.00
28167;BME280;15455;53.376;-6.262;2023-02-18T00:59:03;101385.38;;;10.11;100.00
28167;BME280;15455;53.376;-6.262;2023-02-18T01:01:49;101397.53;;;10.14;100.00
28167;BME280;15455;53.376;-6.262;2023-02-18T01:04:34;101385.38;;;10.13;100.00
28167;BME280;15455;53.376;-6.262;2023-02-18T01:07:20;101393.19;;;10.11;100.00
28167;BME280;15455;53.376;-6.262;2023-02-18T01:10:05;101385.28;;;10.06;100.00
28167;BME280;15455;53.376;-6.262;2023-02-18T01:12:51;101392.22;;;10.01;100.00
28167;BME280;15455;53.376;-6.262;2023-02-18T01:15:41;101398.25;;;9.96;100.00
28167;BME280;15455;53.376;-6.262;2023-02-18T01:18:27;101392.97;;;9.91;100.00
28167;BME280;15455;53.376;-6.262;2023-02-18T01:21:13;101414.69;;;9.90;100.00
28167;BME280;15455;53.376;-6.262;2023-02-18T01:23:59;101397.28;;;9.89;100.00
28167;BME280;15455;53.376;-6.262;2023-02-18T01:26:44;101395.50;;;9.85;100.00
28167;BME280;15455;53.376;-6.262;2023-02-18T01:29:31;101408.59;;;9.88;100.00
28167;BME280;15455;53.376;-6.262;2023-02-18T01:32:18;101407.72;;;9.87;100.00
28167;BME280;15455;53.376;-6.262;2023-02-18T01:35:06;101402.47;;;9.86;100.00
28167;BME280;15455;53.376;-6.262;2023-02-18T01:37:52;101397.28;;;9.89;100.00
28167;BME280;15455;53.376;-6.262;2023-02-18T01:40:45;101394.66;;;9.87;100.00
28167;BME280;15455;53.376;-6.262;2023-02-18T01:43:32;101385.97;;;9.85;100.00
28167;BME280;15455;53.376;-6.262;2023-02-18T01:46:20;101402.50;;;9.87;100.00
28167;BME280;15455;53.376;-6.262;2023-02-18T01:49:07;101391.19;;;9.87;100.00
28167;BME280;15455;53.376;-6.262;2023-02-18T01:52:01;101399.94;;;9.92;100.00
28167;BME280;15455;53.376;-6.262;2023-02-18T01:54:50;101382.63;;;9.97;100.00
28167;BME280;15455;53.376;-6.262;2023-02-18T01:57:37;101400.06;;;10.03;100.00
28167;BME280;15455;53.376;-6.262;2023-02-18T02:00:23;101382.69;;;10.08;100.00
28167;BME280;15455;53.376;-6.262;2023-02-18T02:03:10;101391.50;;;10.16;100.00
28167;BME280;15455;53.376;-6.262;2023-02-18T02:05:55;101395.88;;;10.22;100.00
28167;BME280;15455;53.376;-6.262;2023-02-18T02:08:41;101395.03;;;10.23;100.00
28167;BME280;15455;53.376;-6.262;2023-02-18T02:12:26;101415.03;;;10.24;100.00
28167;BME280;15455;53.376;-6.262;2023-02-18T02:27:22;101408.94;;;10.22;100.00
28167;BME280;15455;53.376;-6.262;2023-02-18T02:44:53;101422.16;;;10.36;100.00
28167;BME280;15455;53.376;-6.262;2023-02-18T02:50:48;101435.19;;;10.34;100.00
28167;BME280;15455;53.376;-6.262;2023-02-18T02:53:40;101437.75;;;10.33;100.00
28167;BME280;15455;53.376;-6.262;2023-02-18T02:56:26;101422.09;;;10.33;100.00
28167;BME280;15455;53.376;-6.262;2023-02-18T02:59:17;101410.81;;;10.34;100.00
28167;BME280;15455;53.376;-6.262;2023-02-18T03:11:19;101423.09;;;10.46;100.00
28167;BME280;15455;53.376;-6.262;2023-02-18T03:14:27;101430.97;;;10.49;100.00
28167;BME280;15455;53.376;-6.262;2023-02-18T03:17:26;101431.84;;;10.52;100.00
28167;BME280;15455;53.376;-6.262;2023-02-18T03:20:34;101417.09;;;10.54;100.00
28167;BME280;15455;53.376;-6.262;2023-02-18T03:23:33;101422.22;;;10.47;100.00
28167;BME280;15455;53.376;-6.262;2023-02-18T03:26:19;101420.44;;;10.42;100.00
28167;BME280;15455;53.376;-6.262;2023-02-18T03:29:07;101406.53;;;10.40;100.00
28167;BME280;15455;53.376;-6.262;2023-02-18T03:31:58;101409.91;;;10.33;100.00
28167;BME280;15455;53.376;-6.262;2023-02-18T03:34:49;101402.91;;;10.29;100.00
28167;BME280;15455;53.376;-6.262;2023-02-18T03:37:39;101392.47;;;10.29;100.00
28167;BME280;15455;53.376;-6.262;2023-02-18T03:40:28;101409.00;;;10.30;100.00
28167;BME280;15455;53.376;-6.262;2023-02-18T03:43:15;101359.38;;;10.25;100.00
28167;BME280;15455;53.376;-6.262;2023-02-18T03:46:01;101355.81;;;10.15;100.00
28167;BME280;15455;53.376;-6.262;2023-02-18T03:48:47;101367.97;;;10.10;100.00
28167;BME280;15455;53.376;-6.262;2023-02-18T03:51:32;101373.06;;;9.99;100.00
28167;BME280;15455;53.376;-6.262;2023-02-18T03:54:18;101387.81;;;9.97;100.00
28167;BME280;15455;53.376;-6.262;2023-02-18T03:57:04;101380.88;;;9.98;100.00
28167;BME280;15455;53.376;-6.262;2023-02-18T03:59:49;101378.25;;;9.98;100.00
28167;BME280;15455;53.376;-6.262;2023-02-18T04:02:35;101361.78;;;10.02;100.00
28167;BME280;15455;53.376;-6.262;2023-02-18T04:05:20;101356.59;;;10.06;100.00
28167;BME280;15455;53.376;-6.262;2023-02-18T04:08:06;101357.50;;;10.08;100.00
28167;BME280;15455;53.376;-6.262;2023-02-18T04:10:51;101357.53;;;10.12;100.00
28167;BME280;15455;53.376;-6.262;2023-02-18T04:13:37;101366.22;;;10.12;100.00
28167;BME280;15455;53.376;-6.262;2023-02-18T04:16:22;101366.16;;;10.04;100.00
28167;BME280;15455;53.376;-6.262;2023-02-18T04:19:07;101375.56;;;9.87;100.00
28167;BME280;15455;53.376;-6.262;2023-02-18T04:21:53;101390.09;;;9.66;100.00
28167;BME280;15455;53.376;-6.262;2023-02-18T04:24:38;101396.94;;;9.58;100.00
28167;BME280;15455;53.376;-6.262;2023-02-18T04:27:24;101396.00;;;9.51;100.00
28167;BME280;15455;53.376;-6.262;2023-02-18T04:30:10;101402.84;;;9.43;100.00
28167;BME280;15455;53.376;-6.262;2023-02-18T04:32:56;101394.09;;;9.38;100.00
28167;BME280;15455;53.376;-6.262;2023-02-18T04:35:41;101399.22;;;9.32;100.00
28167;BME280;15455;53.376;-6.262;2023-02-18T04:38:26;101395.66;;;9.25;100.00
28167;BME280;15455;53.376;-6.262;2023-02-18T04:41:12;101394.78;;;9.25;100.00
28167;BME280;15455;53.376;-6.262;2023-02-18T04:43:57;101401.69;;;9.23;100.00
28167;BME280;15455;53.376;-6.262;2023-02-18T04:46:43;101410.44;;;9.25;100.00
28167;BME280;15455;53.376;-6.262;2023-02-18T04:49:29;101395.66;;;9.25;100.00
28167;BME280;15455;53.376;-6.262;2023-02-18T04:52:14;101401.72;;;9.24;100.00
28167;BME280;15455;53.376;-6.262;2023-02-18T04:55:00;101395.72;;;9.30;100.00
28167;BME280;15455;53.376;-6.262;2023-02-18T04:57:45;101379.25;;;9.32;100.00
28167;BME280;15455;53.376;-6.262;2023-02-18T05:00:31;101387.16;;;9.38;100.00
28167;BME280;15455;53.376;-6.262;2023-02-18T05:03:16;101375.88;;;9.39;100.00
28167;BME280;15455;53.376;-6.262;2023-02-18T05:06:02;101375.84;;;9.38;100.00
28167;BME280;15455;53.376;-6.262;2023-02-18T05:08:47;101377.63;;;9.41;100.00
28167;BME280;15455;53.376;-6.262;2023-02-18T05:11:33;101370.72;;;9.46;100.00
28167;BME280;15455;53.376;-6.262;2023-02-18T05:14:18;101366.47;;;9.51;100.00
28167;BME280;15455;53.376;-6.262;2023-02-18T05:17:04;101371.75;;;9.57;100.00
28167;BME280;15455;53.376;-6.262;2023-02-18T05:19:49;101370.91;;;9.58;100.00
28167;BME280;15455;53.376;-6.262;2023-02-18T05:22:35;101368.25;;;9.55;100.00
28167;BME280;15455;53.376;-6.262;2023-02-18T05:25:21;101369.06;;;9.49;100.00
28167;BME280;15455;53.376;-6.262;2023-02-18T05:28:07;101382.06;;;9.48;100.00
28167;BME280;15455;53.376;-6.262;2023-02-18T05:30:53;101383.72;;;9.43;100.00
28167;BME280;15455;53.376;-6.262;2023-02-18T05:33:39;101385.34;;;9.34;100.00
28167;BME280;15455;53.376;-6.262;2023-02-18T05:36:24;101383.59;;;9.30;100.00
28167;BME280;15455;53.376;-6.262;2023-02-18T05:39:10;101388.78;;;9.29;100.00
28167;BME280;15455;53.376;-6.262;2023-02-18T05:41:55;101391.28;;;9.24;100.00
28167;BME280;15455;53.376;-6.262;2023-02-18T05:44:41;101386.97;;;9.23;100.00
28167;BME280;15455;53.376;-6.262;2023-02-18T05:47:26;101394.72;;;9.20;100.00
28167;BME280;15455;53.376;-6.262;2023-02-18T05:50:12;101381.66;;;9.17;100.00
28167;BME280;15455;53.376;-6.262;2023-02-18T05:52:58;101381.66;;;9.18;100.00
28167;BME280;15455;53.376;-6.262;2023-02-18T05:55:44;101369.50;;;9.14;100.00
28167;BME280;15455;53.376;-6.262;2023-02-18T05:58:29;101376.38;;;9.11;100.00
28167;BME280;15455;53.376;-6.262;2023-02-18T06:01:14;101366.78;;;9.10;100.00
28167;BME280;15455;53.376;-6.262;2023-02-18T06:04:00;101371.19;;;9.12;100.00
28167;BME280;15455;53.376;-6.262;2023-02-18T06:06:45;101372.91;;;9.10;100.00
28167;BME280;15455;53.376;-6.262;2023-02-18T06:09:31;101362.47;;;9.10;100.00
28167;BME280;15455;53.376;-6.262;2023-02-18T06:12:16;101366.84;;;9.13;100.00
28167;BME280;15455;53.376;-6.262;2023-02-18T06:15:02;101370.34;;;9.15;100.00
28167;BME280;15455;53.376;-6.262;2023-02-18T06:17:47;101385.16;;;9.19;100.00
28167;BME280;15455;53.376;-6.262;2023-02-18T06:20:33;101375.63;;;9.21;100.00
28167;BME280;15455;53.376;-6.262;2023-02-18T06:23:18;101374.78;;;9.20;100.00
28167;BME280;15455;53.376;-6.262;2023-02-18T06:26:04;101375.66;;;9.23;100.00
28167;BME280;15455;53.376;-6.262;2023-02-18T06:28:50;101384.38;;;9.23;100.00
28167;BME280;15455;53.376;-6.262;2023-02-18T06:31:35;101391.28;;;9.24;100.00
28167;BME280;15455;53.376;-6.262;2023-02-18T06:34:21;101391.34;;;9.27;100.00
28167;BME280;15455;53.376;-6.262;2023-02-18T06:37:06;101397.47;;;9.29;100.00
28167;BME280;15455;53.376;-6.262;2023-02-18T06:39:52;101402.66;;;9.29;100.00
28167;BME280;15455;53.376;-6.262;2023-02-18T06:42:37;101400.94;;;9.30;100.00
28167;BME280;15455;53.376;-6.262;2023-02-18T06:45:23;101401.81;;;9.29;100.00
28167;BME280;15455;53.376;-6.262;2023-02-18T06:48:09;101408.75;;;9.30;100.00
28167;BME280;15455;53.376;-6.262;2023-02-18T06:50:55;101416.56;;;9.30;100.00
28167;BME280;15455;53.376;-6.262;2023-02-18T06:53:41;101428.72;;;9.31;100.00
28167;BME280;15455;53.376;-6.262;2023-02-18T06:56:28;101417.44;;;9.30;100.00
28167;BME280;15455;53.376;-6.262;2023-02-18T06:59:15;101434.84;;;9.34;100.00
28167;BME280;15455;53.376;-6.262;2023-02-18T07:02:01;101421.00;;;9.37;100.00
28167;BME280;15455;53.376;-6.262;2023-02-18T07:04:46;101427.09;;;9.37;100.00
28167;BME280;15455;53.376;-6.262;2023-02-18T07:07:32;101433.16;;;9.38;100.00
28167;BME280;15455;53.376;-6.262;2023-02-18T07:10:17;101442.78;;;9.42;100.00
28167;BME280;15455;53.376;-6.262;2023-02-18T07:13:03;101443.66;;;9.44;100.00
28167;BME280;15455;53.376;-6.262;2023-02-18T07:15:49;101459.31;;;9.46;100.00
28167;BME280;15455;53.376;-6.262;2023-02-18T07:18:34;101470.66;;;9.48;100.00
28167;BME280;15455;53.376;-6.262;2023-02-18T07:21:20;101480.16;;;9.44;100.00
28167;BME280;15455;53.376;-6.262;2023-02-18T07:24:05;101491.28;;;9.34;100.00
28167;BME280;15455;53.376;-6.262;2023-02-18T07:26:51;101485.88;;;9.20;100.00
28167;BME280;15455;53.376;-6.262;2023-02-18T07:29:36;101507.41;;;9.10;100.00
28167;BME280;15455;53.376;-6.262;2023-02-18T07:32:22;101502.22;;;9.11;100.00
28167;BME280;15455;53.376;-6.262;2023-02-18T07:35:10;101513.63;;;9.18;100.00
28167;BME280;15455;53.376;-6.262;2023-02-18T07:37:57;101513.72;;;9.24;100.00
28167;BME280;15455;53.376;-6.262;2023-02-18T07:40:44;101502.56;;;9.34;100.00
28167;BME280;15455;53.376;-6.262;2023-02-18T07:43:29;101512.22;;;9.40;100.00
28167;BME280;15455;53.376;-6.262;2023-02-18T07:46:15;101514.00;;;9.43;100.00
28167;BME280;15455;53.376;-6.262;2023-02-18T07:49:01;101526.25;;;9.48;100.00
28167;BME280;15455;53.376;-6.262;2023-02-18T07:51:47;101526.25;;;9.50;100.00
28167;BME280;15455;53.376;-6.262;2023-02-18T07:54:33;101523.66;;;9.51;100.00
28167;BME280;15455;53.376;-6.262;2023-02-18T07:57:19;101520.19;;;9.49;100.00
28167;BME280;15455;53.376;-6.262;2023-02-18T08:00:04;101529.59;;;9.39;100.00
28167;BME280;15455;53.376;-6.262;2023-02-18T08:02:56;101558.09;;;9.29;100.00
28167;BME280;15455;53.376;-6.262;2023-02-18T08:05:41;101562.31;;;9.22;100.00
28167;BME280;15455;53.376;-6.262;2023-02-18T08:08:29;101561.31;;;9.14;100.00
28167;BME280;15455;53.376;-6.262;2023-02-18T08:11:15;101570.84;;;9.13;100.00
28167;BME280;15455;53.376;-6.262;2023-02-18T08:14:04;101570.84;;;9.13;100.00
28167;BME280;15455;53.376;-6.262;2023-02-18T08:16:50;101568.22;;;9.12;100.00
28167;BME280;15455;53.376;-6.262;2023-02-18T08:19:36;101571.69;;;9.12;100.00
28167;BME280;15455;53.376;-6.262;2023-02-18T08:22:21;101575.22;;;9.14;100.00
28167;BME280;15455;53.376;-6.262;2023-02-18T08:25:06;101576.97;;;9.17;100.00
28167;BME280;15455;53.376;-6.262;2023-02-18T08:27:56;101581.38;;;9.19;100.00
28167;BME280;15455;53.376;-6.262;2023-02-18T08:30:46;101583.13;;;9.20;100.00
28167;BME280;15455;53.376;-6.262;2023-02-18T08:33:32;101592.66;;;9.20;100.00
28167;BME280;15455;53.376;-6.262;2023-02-18T08:36:18;101600.53;;;9.23;100.00
28167;BME280;15455;53.376;-6.262;2023-02-18T08:39:04;101603.97;;;9.20;100.00
28167;BME280;15455;53.376;-6.262;2023-02-18T08:41:50;101611.72;;;9.17;100.00
28167;BME280;15455;53.376;-6.262;2023-02-18T08:44:35;101609.91;;;9.13;100.00
28167;BME280;15455;53.376;-6.262;2023-02-18T08:47:21;101610.72;;;9.11;100.00
28167;BME280;15455;53.376;-6.262;2023-02-18T08:50:27;101618.50;;;9.08;100.00
28167;BME280;15455;53.376;-6.262;2023-02-18T08:53:12;101629.72;;;9.05;100.00
28167;BME280;15455;53.376;-6.262;2023-02-18T08:55:58;101633.19;;;9.06;100.00
28167;BME280;15455;53.376;-6.262;2023-02-18T08:58:43;101634.94;;;9.05;100.00
28167;BME280;15455;53.376;-6.262;2023-02-18T09:01:29;101639.31;;;9.06;100.00
28167;BME280;15455;53.376;-6.262;2023-02-18T09:04:15;101652.31;;;9.06;100.00
28167;BME280;15455;53.376;-6.262;2023-02-18T09:07:01;101658.41;;;9.07;100.00
28167;BME280;15455;53.376;-6.262;2023-02-18T09:09:47;101667.03;;;9.06;100.00
28167;BME280;15455;53.376;-6.262;2023-02-18T09:12:33;101668.81;;;9.07;100.00
28167;BME280;15455;53.376;-6.262;2023-02-18T09:15:18;101674.84;;;9.06;100.00
28167;BME280;15455;53.376;-6.262;2023-02-18T09:18:04;101673.97;;;9.03;100.00
28167;BME280;15455;53.376;-6.262;2023-02-18T09:20:50;101667.88;;;9.01;100.00
28167;BME280;15455;53.376;-6.262;2023-02-18T09:23:36;101669.56;;;9.01;100.00
28167;BME280;15455;53.376;-6.262;2023-02-18T09:26:22;101668.69;;;9.00;100.00
28167;BME280;15455;53.376;-6.262;2023-02-18T09:29:08;101670.53;;;9.04;100.00
28167;BME280;15455;53.376;-6.262;2023-02-18T09:31:54;101664.56;;;9.10;100.00
28167;BME280;15455;53.376;-6.262;2023-02-18T09:34:40;101672.41;;;9.13;100.00
28167;BME280;15455;53.376;-6.262;2023-02-18T09:37:25;101670.75;;;9.18;100.00
28167;BME280;15455;53.376;-6.262;2023-02-18T09:40:25;101671.72;;;9.22;100.00
28167;BME280;15455;53.376;-6.262;2023-02-18T09:46:35;101675.44;;;9.36;100.00
28167;BME280;15455;53.376;-6.262;2023-02-18T09:49:56;101667.72;;;9.43;100.00
28167;BME280;15455;53.376;-6.262;2023-02-18T09:52:43;101666.13;;;9.51;100.00
28167;BME280;15455;53.376;-6.262;2023-02-18T09:55:35;101660.16;;;9.58;100.00
28167;BME280;15455;53.376;-6.262;2023-02-18T09:58:25;101654.19;;;9.65;100.00
28167;BME280;15455;53.376;-6.262;2023-02-18T10:04:40;101657.13;;;9.85;100.00
28167;BME280;15455;53.376;-6.262;2023-02-18T10:07:31;101644.19;;;9.93;100.00
28167;BME280;15455;53.376;-6.262;2023-02-18T10:10:26;101633.03;;;10.03;100.00
28167;BME280;15455;53.376;-6.262;2023-02-18T10:13:25;101635.78;;;10.13;100.00
28167;BME280;15455;53.376;-6.262;2023-02-18T10:16:17;101634.06;;;10.15;100.00
28167;BME280;15455;53.376;-6.262;2023-02-18T10:19:20;101628.84;;;10.16;100.00
28167;BME280;15455;53.376;-6.262;2023-02-18T10:22:07;101628.03;;;10.19;100.00
28167;BME280;15455;53.376;-6.262;2023-02-18T10:24:57;101624.59;;;10.23;100.00
28167;BME280;15455;53.376;-6.262;2023-02-18T10:27:45;101611.59;;;10.24;100.00
28167;BME280;15455;53.376;-6.262;2023-02-18T10:30:38;101618.59;;;10.29;100.00
28167;BME280;15455;53.376;-6.262;2023-02-18T10:33:34;101622.09;;;10.32;100.00
28167;BME280;15455;53.376;-6.262;2023-02-18T10:36:25;101620.47;;;10.36;100.00
28167;BME280;15455;53.376;-6.262;2023-02-18T10:45:29;101625.75;;;10.42;100.00
28167;BME280;15455;53.376;-6.262;2023-02-18T10:51:29;101621.31;;;10.36;100.00
28167;BME280;15455;53.376;-6.262;2023-02-18T10:54:15;101625.63;;;10.33;100.00
28167;BME280;15455;53.376;-6.262;2023-02-18T10:57:00;101622.94;;;10.31;100.00
28167;BME280;15455;53.376;-6.262;2023-02-18T10:59:59;101628.22;;;10.33;100.00
28167;BME280;15455;53.376;-6.262;2023-02-18T11:02:45;101630.88;;;10.34;100.00
28167;BME280;15455;53.376;-6.262;2023-02-18T11:05:34;101628.34;;;10.42;100.00
28167;BME280;15455;53.376;-6.262;2023-02-18T11:08:24;101610.94;;;10.41;100.00
28167;BME280;15455;53.376;-6.262;2023-02-18T11:11:18;101626.56;;;10.38;100.00
28167;BME280;15455;53.376;-6.262;2023-02-18T11:14:07;101624.56;;;10.18;100.00
28167;BME280;15455;53.376;-6.262;2023-02-18T11:16:53;101635.66;;;10.06;100.00
28167;BME280;15455;53.376;-6.262;2023-02-18T11:19:40;101642.56;;;10.01;100.00
28167;BME280;15455;53.376;-6.262;2023-02-18T11:22:34;101641.56;;;9.93;100.00
28167;BME280;15455;53.376;-6.262;2023-02-18T11:25:30;101635.38;;;9.85;100.00
28167;BME280;15455;53.376;-6.262;2023-02-18T11:31:03;101639.78;;;9.89;100.00
28167;BME280;15455;53.376;-6.262;2023-02-18T11:33:52;101640.66;;;9.89;100.00
28167;BME280;15455;53.376;-6.262;2023-02-18T11:36:38;101631.09;;;9.90;100.00
28167;BME280;15455;53.376;-6.262;2023-02-18T11:39:26;101626.88;;;9.97;100.00
28167;BME280;15455;53.376;-6.262;2023-02-18T11:42:14;101602.56;;;10.01;100.00
28167;BME280;15455;53.376;-6.262;2023-02-18T11:45:01;101605.28;;;10.07;100.00
28167;BME280;15455;53.376;-6.262;2023-02-18T11:47:58;101603.75;;;10.24;100.00
28167;BME280;15455;53.376;-6.262;2023-02-18T11:50:44;101608.22;;;10.33;100.00
28167;BME280;15455;53.376;-6.262;2023-02-18T11:53:35;101602.19;;;10.34;100.00
28167;BME280;15455;53.376;-6.262;2023-02-18T11:56:21;101607.41;;;10.34;100.00
28167;BME280;15455;53.376;-6.262;2023-02-18T11:59:09;101608.25;;;10.35;100.00
28167;BME280;15455;53.376;-6.262;2023-02-18T12:07:56;101620.28;;;10.26;100.00
28167;BME280;15455;53.376;-6.262;2023-02-18T12:10:47;101622.84;;;10.20;100.00
28167;BME280;15455;53.376;-6.262;2023-02-18T12:14:02;101635.00;;;10.18;100.00
28167;BME280;15455;53.376;-6.262;2023-02-18T12:29:02;101633.06;;;10.72;100.00
28167;BME280;15455;53.376;-6.262;2023-02-18T12:32:18;101632.28;;;10.81;100.00
28167;BME280;15455;53.376;-6.262;2023-02-18T12:41:47;101589.91;;;11.08;100.00
28167;BME280;15455;53.376;-6.262;2023-02-18T12:51:10;101606.88;;;10.63;100.00
28167;BME280;15455;53.376;-6.262;2023-02-18T13:03:38;101559.31;;;10.97;100.00
28167;BME280;15455;53.376;-6.262;2023-02-18T13:06:51;101557.75;;;11.19;100.00
28167;BME280;15455;53.376;-6.262;2023-02-18T13:13:08;101553.44;;;11.22;100.00
28167;BME280;15455;53.376;-6.262;2023-02-18T13:16:01;101560.38;;;11.19;100.00
28167;BME280;15455;53.376;-6.262;2023-02-18T13:19:20;101561.16;;;11.08;100.00
28167;BME280;15455;53.376;-6.262;2023-02-18T13:22:05;101557.56;;;10.94;100.00
28167;BME280;15455;53.376;-6.262;2023-02-18T13:24:54;101568.03;;;11.00;100.00
28167;BME280;15455;53.376;-6.262;2023-02-18T13:27:47;101564.66;;;11.12;100.00
28167;BME280;15455;53.376;-6.262;2023-02-18T13:40:05;101557.84;;;11.29;100.00
28167;BME280;15455;53.376;-6.262;2023-02-18T13:49:06;101548.28;;;11.32;100.00
28167;BME280;15455;53.376;-6.262;2023-02-18T13:51:58;101552.66;;;11.36;100.00
28167;BME280;15455;53.376;-6.262;2023-02-18T13:54:45;101553.69;;;11.61;100.00
28167;BME280;15455;53.376;-6.262;2023-02-18T13:57:36;101523.28;;;11.80;100.00
28167;BME280;15455;53.376;-6.262;2023-02-18T14:00:36;101536.44;;;11.91;100.00
28167;BME280;15455;53.376;-6.262;2023-02-18T14:03:49;101528.56;;;11.86;100.00
28167;BME280;15455;53.376;-6.262;2023-02-18T14:06:35;101511.94;;;11.72;100.00
28167;BME280;15455;53.376;-6.262;2023-02-18T14:21:03;101510.72;;;11.16;100.00
28167;BME280;15455;53.376;-6.262;2023-02-18T14:23:58;101499.31;;;11.07;100.00
28167;BME280;15455;53.376;-6.262;2023-02-18T14:26:47;101491.50;;;11.12;100.00
28167;BME280;15455;53.376;-6.262;2023-02-18T14:29:33;101490.66;;;11.15;100.00
28167;BME280;15455;53.376;-6.262;2023-02-18T14:32:19;101505.44;;;11.09;100.00
28167;BME280;15455;53.376;-6.262;2023-02-18T14:48:04;101494.00;;;10.92;100.00
28167;BME280;15455;53.376;-6.262;2023-02-18T14:50:58;101488.00;;;11.04;100.00
28167;BME280;15455;53.376;-6.262;2023-02-18T14:53:45;101492.31;;;11.03;100.00
28167;BME280;15455;53.376;-6.262;2023-02-18T14:56:36;101508.81;;;10.98;100.00
28167;BME280;15455;53.376;-6.262;2023-02-18T14:59:30;101496.53;;;10.87;100.00
28167;BME280;15455;53.376;-6.262;2023-02-18T15:02:21;101498.34;;;10.96;100.00
28167;BME280;15455;53.376;-6.262;2023-02-18T15:05:20;101491.47;;;11.07;100.00
28167;BME280;15455;53.376;-6.262;2023-02-18T15:08:14;101495.81;;;11.04;100.00
28167;BME280;15455;53.376;-6.262;2023-02-18T15:11:03;101505.38;;;11.05;100.00
28167;BME280;15455;53.376;-6.262;2023-02-18T15:13:50;101476.59;;;10.94;100.00
28167;BME280;15455;53.376;-6.262;2023-02-18T15:16:36;101510.53;;;10.92;100.00
28167;BME280;15455;53.376;-6.262;2023-02-18T15:19:24;101506.19;;;10.98;100.00
28167;BME280;15455;53.376;-6.262;2023-02-18T15:22:17;101512.34;;;11.04;100.00
28167;BME280;15455;53.376;-6.262;2023-02-18T15:25:03;101502.78;;;11.05;100.00
28167;BME280;15455;53.376;-6.262;2023-02-18T15:27:50;101518.44;;;11.03;100.00
28167;BME280;15455;53.376;-6.262;2023-02-18T15:30:36;101509.59;;;10.89;100.00
28167;BME280;15455;53.376;-6.262;2023-02-18T15:33:23;101524.28;;;10.74;100.00
28167;BME280;15455;53.376;-6.262;2023-02-18T15:36:13;101519.88;;;10.69;100.00
28167;BME280;15455;53.376;-6.262;2023-02-18T15:38:59;101517.34;;;10.73;100.00
28167;BME280;15455;53.376;-6.262;2023-02-18T15:41:46;101515.69;;;10.85;100.00
28167;BME280;15455;53.376;-6.262;2023-02-18T15:44:34;101514.81;;;10.86;100.00
28167;BME280;15455;53.376;-6.262;2023-02-18T15:47:20;101509.50;;;10.75;100.00
28167;BME280;15455;53.376;-6.262;2023-02-18T15:50:16;101510.31;;;10.69;100.00
28167;BME280;15455;53.376;-6.262;2023-02-18T15:53:14;101505.09;;;10.68;100.00
28167;BME280;15455;53.376;-6.262;2023-02-18T15:56:05;101514.69;;;10.70;100.00
28167;BME280;15455;53.376;-6.262;2023-02-18T15:58:56;101503.41;;;10.74;100.00
28167;BME280;15455;53.376;-6.262;2023-02-18T16:02:18;101497.28;;;10.69;100.00
28167;BME280;15455;53.376;-6.262;2023-02-18T16:05:12;101502.47;;;10.66;100.00
28167;BME280;15455;53.376;-6.262;2023-02-18T16:08:00;101516.34;;;10.62;100.00
28167;BME280;15455;53.376;-6.262;2023-02-18T16:13:46;101518.00;;;10.52;100.00
28167;BME280;15455;53.376;-6.262;2023-02-18T16:16:34;101525.75;;;10.45;100.00
28167;BME280;15455;53.376;-6.262;2023-02-18T16:19:24;101531.78;;;10.39;100.00
28167;BME280;15455;53.376;-6.262;2023-02-18T16:22:40;101534.28;;;10.33;100.00
28167;BME280;15455;53.376;-6.262;2023-02-18T16:25:53;101537.75;;;10.32;100.00
28167;BME280;15455;53.376;-6.262;2023-02-18T16:28:41;101540.34;;;10.30;100.00
28167;BME280;15455;53.376;-6.262;2023-02-18T16:31:27;101555.88;;;10.21;100.00
28167;BME280;15455;53.376;-6.262;2023-02-18T16:34:12;101543.63;;;10.17;100.00
28167;BME280;15455;53.376;-6.262;2023-02-18T16:36:57;101548.78;;;10.09;100.00
28167;BME280;15455;53.376;-6.262;2023-02-18T16:40:01;101540.91;;;10.06;100.00
28167;BME280;15455;53.376;-6.262;2023-02-18T16:42:50;101571.34;;;10.05;100.00
28167;BME280;15455;53.376;-6.262;2023-02-18T16:45:44;101569.56;;;10.01;100.00
28167;BME280;15455;53.376;-6.262;2023-02-18T16:48:41;101570.34;;;9.96;100.00
28167;BME280;15455;53.376;-6.262;2023-02-18T16:51:32;101574.63;;;9.92;100.00